sensor_id;sensor_type;location;lat;lon;timestamp;pressure;altitude;pressure_sealevel;temperature;humidity
73103;BME280;61294;65.988;29.172;2022-08-04T00:01:24;98088.00;;;12.71;86.29
73103;BME280;61294;65.988;29.172;2022-08-04T00:04:02;98076.53;;;12.71;85.77
73103;BME280;61294;65.988;29.172;2022-08-04T00:06:55;98087.00;;;12.77;85.98
73103;BME280;61294;65.988;29.172;2022-08-04T00:09:58;98053.09;;;12.57;85.82
73103;BME280;61294;65.988;29.172;2022-08-04T00:12:27;98052.91;;;12.65;85.78
73103;BME280;61294;65.988;29.172;2022-08-04T00:14:57;98048.53;;;12.62;85.80
73103;BME280;61294;65.988;29.172;2022-08-04T00:17:29;98039.66;;;12.66;85.47
73103;BME280;61294;65.988;29.172;2022-08-04T00:19:59;98048.53;;;12.62;86.20
73103;BME280;61294;65.988;29.172;2022-08-04T00:22:27;98027.59;;;12.54;86.44
73103;BME280;61294;65.988;29.172;2022-08-04T00:24:54;98045.16;;;12.55;86.11
73103;BME280;61294;65.988;29.172;2022-08-04T00:27:20;98033.97;;;12.44;85.68
73103;BME280;61294;65.988;29.172;2022-08-04T00:29:46;98053.97;;;12.56;85.76
73103;BME280;61294;65.988;29.172;2022-08-04T00:32:12;98040.28;;;12.37;86.11
73103;BME280;61294;65.988;29.172;2022-08-04T00:34:38;98046.56;;;12.33;86.57
73103;BME280;61294;65.988;29.172;2022-08-04T00:37:06;98049.06;;;12.39;86.35
73103;BME280;61294;65.988;29.172;2022-08-04T00:39:32;98001.34;;;12.06;86.41
73103;BME280;61294;65.988;29.172;2022-08-04T00:42:22;98040.44;;;12.31;86.74
73103;BME280;61294;65.988;29.172;2022-08-04T00:47:58;98031.97;;;12.15;86.96
73103;BME280;61294;65.988;29.172;2022-08-04T00:50:54;98022.53;;;12.01;87.00
73103;BME280;61294;65.988;29.172;2022-08-04T01:00:57;98039.09;;;12.09;86.95
73103;BME280;61294;65.988;29.172;2022-08-04T01:03:36;98021.50;;;12.10;86.94
73103;BME280;61294;65.988;29.172;2022-08-04T01:06:33;98029.44;;;12.10;86.70
73103;BME280;61294;65.988;29.172;2022-08-04T01:09:14;98022.47;;;12.06;86.69
73103;BME280;61294;65.988;29.172;2022-08-04T01:12:40;98005.28;;;11.85;87.00
73103;BME280;61294;65.988;29.172;2022-08-04T01:15:03;98024.38;;;11.99;87.06
73103;BME280;61294;65.988;29.172;2022-08-04T01:17:53;98020.00;;;11.97;86.86
73103;BME280;61294;65.988;29.172;2022-08-04T01:20:24;98019.19;;;11.93;87.00
73103;BME280;61294;65.988;29.172;2022-08-04T01:31:43;98020.47;;;11.72;87.57
73103;BME280;61294;65.988;29.172;2022-08-04T01:34:12;98025.63;;;11.78;87.38
73103;BME280;61294;65.988;29.172;2022-08-04T01:36:44;98024.69;;;11.81;87.38
73103;BME280;61294;65.988;29.172;2022-08-04T01:39:13;98013.91;;;11.95;86.75
73103;BME280;61294;65.988;29.172;2022-08-04T01:41:59;98018.34;;;11.91;86.92
73103;BME280;61294;65.988;29.172;2022-08-04T01:44:27;98034.78;;;12.05;86.70
73103;BME280;61294;65.988;29.172;2022-08-04T01:46:56;98037.34;;;12.10;87.24
73103;BME280;61294;65.988;29.172;2022-08-04T01:49:28;98020.88;;;11.99;87.04
73103;BME280;61294;65.988;29.172;2022-08-04T01:51:55;98007.53;;;12.05;86.70
73103;BME280;61294;65.988;29.172;2022-08-04T01:54:22;98034.38;;;12.25;86.32
73103;BME280;61294;65.988;29.172;2022-08-04T01:56:49;98016.78;;;12.26;86.11
73103;BME280;61294;65.988;29.172;2022-08-04T01:59:17;98034.03;;;12.41;85.91
73103;BME280;61294;65.988;29.172;2022-08-04T02:01:43;98027.97;;;12.37;86.30
73103;BME280;61294;65.988;29.172;2022-08-04T02:04:14;97991.50;;;12.14;86.31
73103;BME280;61294;65.988;29.172;2022-08-04T02:12:02;98026.50;;;12.63;85.57
73103;BME280;61294;65.988;29.172;2022-08-04T02:14:35;97992.25;;;12.60;85.08
73103;BME280;61294;65.988;29.172;2022-08-04T02:17:12;98018.31;;;12.74;84.96
73103;BME280;61294;65.988;29.172;2022-08-04T02:20:02;97999.16;;;12.66;84.39
73103;BME280;61294;65.988;29.172;2022-08-04T02:22:32;97985.25;;;12.57;84.29
73103;BME280;61294;65.988;29.172;2022-08-04T02:25:09;97995.38;;;12.76;85.05
73103;BME280;61294;65.988;29.172;2022-08-04T02:27:55;97997.94;;;12.79;84.55
73103;BME280;61294;65.988;29.172;2022-08-04T02:30:30;97990.22;;;12.71;84.54
73103;BME280;61294;65.988;29.172;2022-08-04T02:33:01;98006.69;;;12.83;84.38
73103;BME280;61294;65.988;29.172;2022-08-04T02:35:35;97998.44;;;12.95;84.56
73103;BME280;61294;65.988;29.172;2022-08-04T02:41:01;97966.03;;;12.87;83.96
73103;BME280;61294;65.988;29.172;2022-08-04T02:43:30;97988.63;;;13.00;84.36
73103;BME280;61294;65.988;29.172;2022-08-04T02:45:56;97996.41;;;13.06;83.91
73103;BME280;61294;65.988;29.172;2022-08-04T02:48:24;97994.59;;;13.08;84.22
73103;BME280;61294;65.988;29.172;2022-08-04T02:50:52;97982.44;;;13.01;83.89
73103;BME280;61294;65.988;29.172;2022-08-04T02:53:21;98003.34;;;13.10;84.07
73103;BME280;61294;65.988;29.172;2022-08-04T02:55:47;97982.31;;;13.06;83.63
73103;BME280;61294;65.988;29.172;2022-08-04T02:58:16;98011.06;;;13.20;83.46
73103;BME280;61294;65.988;29.172;2022-08-04T03:00:44;97985.09;;;13.01;83.74
73103;BME280;61294;65.988;29.172;2022-08-04T03:03:21;97993.41;;;13.20;83.61
73103;BME280;61294;65.988;29.172;2022-08-04T03:06:13;98002.13;;;13.24;84.05
73103;BME280;61294;65.988;29.172;2022-08-04T03:20:31;98000.13;;;13.67;82.60
73103;BME280;61294;65.988;29.172;2022-08-04T03:23:19;97987.69;;;13.70;82.08
73103;BME280;61294;65.988;29.172;2022-08-04T03:31:33;97971.69;;;13.75;81.92
73103;BME280;61294;65.988;29.172;2022-08-04T03:34:26;97971.63;;;13.76;81.64
73103;BME280;61294;65.988;29.172;2022-08-04T03:37:02;97964.53;;;13.78;81.52
73103;BME280;61294;65.988;29.172;2022-08-04T03:40:05;97957.78;;;13.68;81.23
73103;BME280;61294;65.988;29.172;2022-08-04T03:51:11;97949.22;;;13.58;82.40
73103;BME280;61294;65.988;29.172;2022-08-04T03:54:52;97940.44;;;13.56;82.07
73103;BME280;61294;65.988;29.172;2022-08-04T04:00:06;97958.78;;;13.64;82.17
73103;BME280;61294;65.988;29.172;2022-08-04T04:05:33;97954.94;;;13.74;81.76
73103;BME280;61294;65.988;29.172;2022-08-04T04:11:27;97939.34;;;13.63;81.92
73103;BME280;61294;65.988;29.172;2022-08-04T04:14:04;97954.19;;;13.69;81.67
73103;BME280;61294;65.988;29.172;2022-08-04T04:16:54;97932.59;;;13.53;81.78
73103;BME280;61294;65.988;29.172;2022-08-04T04:19:46;97948.13;;;13.66;82.31
73103;BME280;61294;65.988;29.172;2022-08-04T04:22:29;97949.84;;;13.68;82.12
73103;BME280;61294;65.988;29.172;2022-08-04T04:34:21;97929.81;;;13.58;82.74
73103;BME280;61294;65.988;29.172;2022-08-04T04:40:06;97952.50;;;13.67;83.91
73103;BME280;61294;65.988;29.172;2022-08-04T04:51:05;97948.00;;;13.39;85.99
73103;BME280;61294;65.988;29.172;2022-08-04T04:59:18;97910.44;;;13.24;87.26
73103;BME280;61294;65.988;29.172;2022-08-04T05:02:16;97939.09;;;13.41;87.56
73103;BME280;61294;65.988;29.172;2022-08-04T05:10:56;97922.59;;;13.32;87.85
73103;BME280;61294;65.988;29.172;2022-08-04T05:13:30;97937.44;;;13.37;88.05
73103;BME280;61294;65.988;29.172;2022-08-04T05:16:12;97940.06;;;13.39;88.23
73103;BME280;61294;65.988;29.172;2022-08-04T05:18:48;97929.69;;;13.29;88.16
73103;BME280;61294;65.988;29.172;2022-08-04T05:21:39;97930.66;;;13.27;88.32
73103;BME280;61294;65.988;29.172;2022-08-04T05:24:08;97950.59;;;13.40;88.63
73103;BME280;61294;65.988;29.172;2022-08-04T05:26:42;97910.41;;;13.26;88.59
73103;BME280;61294;65.988;29.172;2022-08-04T05:29:17;97922.63;;;13.30;88.53
73103;BME280;61294;65.988;29.172;2022-08-04T05:31:50;97925.88;;;13.41;89.07
73103;BME280;61294;65.988;29.172;2022-08-04T05:34:48;97910.34;;;13.27;88.91
73103;BME280;61294;65.988;29.172;2022-08-04T05:37:18;97913.94;;;13.25;89.10
73103;BME280;61294;65.988;29.172;2022-08-04T05:39:52;97933.97;;;13.35;88.89
73103;BME280;61294;65.988;29.172;2022-08-04T05:42:20;97940.25;;;13.31;89.17
73103;BME280;61294;65.988;29.172;2022-08-04T05:44:47;97907.94;;;13.20;89.13
73103;BME280;61294;65.988;29.172;2022-08-04T05:47:14;97895.38;;;13.26;89.34
73103;BME280;61294;65.988;29.172;2022-08-04T05:49:41;97891.88;;;13.26;89.45
73103;BME280;61294;65.988;29.172;2022-08-04T05:52:09;97904.72;;;13.41;89.45
73103;BME280;61294;65.988;29.172;2022-08-04T05:54:35;97893.00;;;13.50;89.16
73103;BME280;61294;65.988;29.172;2022-08-04T05:57:03;97901.69;;;13.54;88.79
73103;BME280;61294;65.988;29.172;2022-08-04T05:59:31;97890.97;;;13.60;88.79
73103;BME280;61294;65.988;29.172;2022-08-04T06:01:59;97896.84;;;13.70;88.69
73103;BME280;61294;65.988;29.172;2022-08-04T06:04:36;97916.19;;;13.72;88.48
73103;BME280;61294;65.988;29.172;2022-08-04T06:07:03;97904.75;;;13.71;88.73
73103;BME280;61294;65.988;29.172;2022-08-04T06:09:29;97899.56;;;13.68;88.62
73103;BME280;61294;65.988;29.172;2022-08-04T06:11:59;97919.53;;;13.78;88.68
73103;BME280;61294;65.988;29.172;2022-08-04T06:14:26;97895.91;;;13.71;88.92
73103;BME280;61294;65.988;29.172;2022-08-04T06:16:53;97934.41;;;13.83;89.16
73103;BME280;61294;65.988;29.172;2022-08-04T06:19:20;97904.19;;;13.60;89.00
73103;BME280;61294;65.988;29.172;2022-08-04T06:21:50;97908.34;;;13.69;89.07
73103;BME280;61294;65.988;29.172;2022-08-04T06:24:19;97898.72;;;13.66;89.52
73103;BME280;61294;65.988;29.172;2022-08-04T06:26:48;97918.84;;;13.72;89.46
73103;BME280;61294;65.988;29.172;2022-08-04T06:29:16;97906.50;;;13.71;89.71
73103;BME280;61294;65.988;29.172;2022-08-04T06:31:50;97919.34;;;13.85;89.74
73103;BME280;61294;65.988;29.172;2022-08-04T06:34:28;97918.50;;;13.84;89.55
73103;BME280;61294;65.988;29.172;2022-08-04T06:36:55;97909.66;;;13.84;89.66
73103;BME280;61294;65.988;29.172;2022-08-04T06:39:23;97897.75;;;13.69;89.95
73103;BME280;61294;65.988;29.172;2022-08-04T06:41:52;97892.31;;;13.73;90.03
73103;BME280;61294;65.988;29.172;2022-08-04T06:44:18;97907.25;;;14.06;89.52
73103;BME280;61294;65.988;29.172;2022-08-04T06:46:46;97898.06;;;13.88;89.90
73103;BME280;61294;65.988;29.172;2022-08-04T06:49:12;97906.69;;;13.94;90.23
73103;BME280;61294;65.988;29.172;2022-08-04T06:51:40;97893.41;;;13.66;90.47
73103;BME280;61294;65.988;29.172;2022-08-04T06:54:06;97894.22;;;13.70;90.38
73103;BME280;61294;65.988;29.172;2022-08-04T06:56:33;97895.66;;;13.80;90.73
73103;BME280;61294;65.988;29.172;2022-08-04T06:59:03;97899.13;;;13.82;90.72
73103;BME280;61294;65.988;29.172;2022-08-04T07:01:30;97895.47;;;13.86;91.01
73103;BME280;61294;65.988;29.172;2022-08-04T07:03:57;97897.97;;;13.91;91.18
73103;BME280;61294;65.988;29.172;2022-08-04T07:06:23;97899.91;;;13.86;91.26
73103;BME280;61294;65.988;29.172;2022-08-04T07:08:50;97926.94;;;13.97;91.21
73103;BME280;61294;65.988;29.172;2022-08-04T07:11:18;97926.84;;;14.00;91.23
73103;BME280;61294;65.988;29.172;2022-08-04T07:13:45;97903.16;;;13.95;91.43
73103;BME280;61294;65.988;29.172;2022-08-04T07:16:13;97918.78;;;14.03;91.27
73103;BME280;61294;65.988;29.172;2022-08-04T07:18:39;97902.91;;;14.03;91.44
73103;BME280;61294;65.988;29.172;2022-08-04T07:21:06;97901.16;;;14.02;91.10
73103;BME280;61294;65.988;29.172;2022-08-04T07:23:32;97912.19;;;14.18;91.18
73103;BME280;61294;65.988;29.172;2022-08-04T07:25:58;97895.50;;;14.14;91.24
73103;BME280;61294;65.988;29.172;2022-08-04T07:28:28;97922.03;;;14.41;91.14
73103;BME280;61294;65.988;29.172;2022-08-04T07:30:55;97896.75;;;14.31;91.36
73103;BME280;61294;65.988;29.172;2022-08-04T07:33:22;97904.59;;;14.34;91.23
73103;BME280;61294;65.988;29.172;2022-08-04T07:35:51;97922.91;;;14.42;91.40
73103;BME280;61294;65.988;29.172;2022-08-04T07:38:17;97902.00;;;14.32;91.07
73103;BME280;61294;65.988;29.172;2022-08-04T07:40:43;97903.53;;;14.40;91.14
73103;BME280;61294;65.988;29.172;2022-08-04T07:43:09;97924.19;;;14.57;91.04
73103;BME280;61294;65.988;29.172;2022-08-04T07:45:36;97900.59;;;14.49;90.98
73103;BME280;61294;65.988;29.172;2022-08-04T07:48:02;97892.69;;;14.47;91.04
73103;BME280;61294;65.988;29.172;2022-08-04T07:50:32;97923.63;;;14.75;90.93
73103;BME280;61294;65.988;29.172;2022-08-04T07:52:59;97888.81;;;14.58;90.90
73103;BME280;61294;65.988;29.172;2022-08-04T07:55:27;97879.81;;;14.63;90.84
73103;BME280;61294;65.988;29.172;2022-08-04T07:57:53;97885.03;;;14.66;90.57
73103;BME280;61294;65.988;29.172;2022-08-04T08:00:19;97875.09;;;14.98;90.58
73103;BME280;61294;65.988;29.172;2022-08-04T08:02:48;97902.06;;;15.11;90.29
73103;BME280;61294;65.988;29.172;2022-08-04T08:05:16;97917.38;;;15.03;90.56
73103;BME280;61294;65.988;29.172;2022-08-04T08:07:47;97895.44;;;14.73;90.83
73103;BME280;61294;65.988;29.172;2022-08-04T08:10:14;97919.69;;;14.87;91.27
73103;BME280;61294;65.988;29.172;2022-08-04T08:12:41;97913.03;;;14.75;91.35
73103;BME280;61294;65.988;29.172;2022-08-04T08:15:09;97909.88;;;14.64;91.39
73103;BME280;61294;65.988;29.172;2022-08-04T08:17:35;97920.03;;;14.76;91.85
73103;BME280;61294;65.988;29.172;2022-08-04T08:20:01;97910.56;;;14.69;91.69
73103;BME280;61294;65.988;29.172;2022-08-04T08:22:27;97919.25;;;14.74;91.60
73103;BME280;61294;65.988;29.172;2022-08-04T08:24:53;97907.06;;;14.69;91.79
73103;BME280;61294;65.988;29.172;2022-08-04T08:27:19;97905.19;;;14.71;91.85
73103;BME280;61294;65.988;29.172;2022-08-04T08:29:45;97914.28;;;14.90;91.50
73103;BME280;61294;65.988;29.172;2022-08-04T08:32:12;97900.47;;;14.80;91.56
73103;BME280;61294;65.988;29.172;2022-08-04T08:34:39;97924.66;;;14.98;91.74
73103;BME280;61294;65.988;29.172;2022-08-04T08:37:14;97907.34;;;14.86;91.19
73103;BME280;61294;65.988;29.172;2022-08-04T08:45:40;97910.31;;;15.04;91.42
73103;BME280;61294;65.988;29.172;2022-08-04T08:54:34;97908.03;;;15.18;91.20
73103;BME280;61294;65.988;29.172;2022-08-04T09:03:10;97917.94;;;15.13;91.57
73103;BME280;61294;65.988;29.172;2022-08-04T09:06:11;97922.44;;;15.11;91.44
73103;BME280;61294;65.988;29.172;2022-08-04T09:20:23;97925.91;;;15.38;90.94
73103;BME280;61294;65.988;29.172;2022-08-04T09:25:49;97946.66;;;15.52;90.85
73103;BME280;61294;65.988;29.172;2022-08-04T09:28:24;97941.91;;;15.60;90.46
73103;BME280;61294;65.988;29.172;2022-08-04T09:31:05;97928.16;;;15.49;90.67
73103;BME280;61294;65.988;29.172;2022-08-04T09:39:26;97950.88;;;15.58;91.09
73103;BME280;61294;65.988;29.172;2022-08-04T09:47:29;97944.22;;;15.69;90.98
73103;BME280;61294;65.988;29.172;2022-08-04T09:50:16;97947.06;;;15.65;90.99
73103;BME280;61294;65.988;29.172;2022-08-04T09:53:01;97952.25;;;15.68;90.69
73103;BME280;61294;65.988;29.172;2022-08-04T09:55:33;97944.22;;;15.69;90.89
73103;BME280;61294;65.988;29.172;2022-08-04T09:58:13;97948.63;;;15.70;90.46
73103;BME280;61294;65.988;29.172;2022-08-04T10:00:47;97945.97;;;15.70;90.62
73103;BME280;61294;65.988;29.172;2022-08-04T10:03:15;97936.59;;;15.60;90.29
73103;BME280;61294;65.988;29.172;2022-08-04T10:16:46;97959.78;;;15.80;90.75
73103;BME280;61294;65.988;29.172;2022-08-04T10:19:25;97949.88;;;15.85;89.94
73103;BME280;61294;65.988;29.172;2022-08-04T10:22:12;97948.47;;;15.99;90.24
73103;BME280;61294;65.988;29.172;2022-08-04T10:27:37;97949.31;;;16.23;89.23
73103;BME280;61294;65.988;29.172;2022-08-04T10:30:09;97944.78;;;16.27;88.60
73103;BME280;61294;65.988;29.172;2022-08-04T10:33:17;97955.59;;;16.22;88.68
73103;BME280;61294;65.988;29.172;2022-08-04T10:36:00;97945.53;;;16.52;88.48
73103;BME280;61294;65.988;29.172;2022-08-04T10:41:29;97953.19;;;16.82;87.64
73103;BME280;61294;65.988;29.172;2022-08-04T10:46:56;97933.81;;;16.79;86.49
73103;BME280;61294;65.988;29.172;2022-08-04T10:49:34;97933.88;;;16.77;86.34
73103;BME280;61294;65.988;29.172;2022-08-04T10:52:10;97944.78;;;16.71;86.87
73103;BME280;61294;65.988;29.172;2022-08-04T10:54:44;97953.44;;;16.54;87.08
73103;BME280;61294;65.988;29.172;2022-08-04T10:57:31;97925.63;;;16.41;87.22
73103;BME280;61294;65.988;29.172;2022-08-04T11:00:26;97954.06;;;16.61;87.51
73103;BME280;61294;65.988;29.172;2022-08-04T11:03:21;97967.97;;;16.45;87.72
73103;BME280;61294;65.988;29.172;2022-08-04T11:05:51;97961.72;;;16.46;87.56
73103;BME280;61294;65.988;29.172;2022-08-04T11:08:27;97961.22;;;16.36;87.94
73103;BME280;61294;65.988;29.172;2022-08-04T11:11:12;97951.69;;;16.31;88.35
73103;BME280;61294;65.988;29.172;2022-08-04T11:13:52;97970.75;;;16.42;88.41
73103;BME280;61294;65.988;29.172;2022-08-04T11:16:45;97962.41;;;16.29;88.90
73103;BME280;61294;65.988;29.172;2022-08-04T11:21:58;97959.69;;;16.31;89.42
73103;BME280;61294;65.988;29.172;2022-08-04T11:24:36;97956.56;;;16.19;89.72
73103;BME280;61294;65.988;29.172;2022-08-04T11:30:03;97933.19;;;16.05;90.50
73103;BME280;61294;65.988;29.172;2022-08-04T11:32:42;97954.25;;;16.10;91.05
73103;BME280;61294;65.988;29.172;2022-08-04T11:35:23;97959.88;;;16.02;91.39
73103;BME280;61294;65.988;29.172;2022-08-04T11:37:57;97959.09;;;15.99;92.11
73103;BME280;61294;65.988;29.172;2022-08-04T11:40:35;97963.25;;;16.06;92.18
73103;BME280;61294;65.988;29.172;2022-08-04T11:43:07;97946.19;;;15.90;92.09
73103;BME280;61294;65.988;29.172;2022-08-04T11:45:38;97974.56;;;15.87;92.28
73103;BME280;61294;65.988;29.172;2022-08-04T11:48:12;97946.50;;;15.80;92.68
73103;BME280;61294;65.988;29.172;2022-08-04T11:50:43;97964.19;;;15.81;92.41
73103;BME280;61294;65.988;29.172;2022-08-04T11:53:13;97977.28;;;15.86;92.83
73103;BME280;61294;65.988;29.172;2022-08-04T11:55:44;97953.00;;;15.71;93.05
73103;BME280;61294;65.988;29.172;2022-08-04T11:58:14;97977.81;;;15.96;92.64
73103;BME280;61294;65.988;29.172;2022-08-04T12:03:35;97963.84;;;15.91;92.64
73103;BME280;61294;65.988;29.172;2022-08-04T12:09:10;97985.44;;;15.81;92.92
73103;BME280;61294;65.988;29.172;2022-08-04T12:11:41;97969.81;;;15.72;93.32
73103;BME280;61294;65.988;29.172;2022-08-04T12:17:04;97960.03;;;15.73;93.25
73103;BME280;61294;65.988;29.172;2022-08-04T12:22:05;97980.88;;;15.85;93.14
73103;BME280;61294;65.988;29.172;2022-08-04T12:25:22;97982.84;;;16.03;93.22
73103;BME280;61294;65.988;29.172;2022-08-04T12:27:26;97973.00;;;16.75;91.58
73103;BME280;61294;65.988;29.172;2022-08-04T12:29:54;97966.19;;;16.68;91.57
73103;BME280;61294;65.988;29.172;2022-08-04T12:35:19;97971.47;;;18.34;86.54
73103;BME280;61294;65.988;29.172;2022-08-04T12:37:56;97982.06;;;18.72;85.16
73103;BME280;61294;65.988;29.172;2022-08-04T12:40:32;97989.81;;;18.78;83.87
73103;BME280;61294;65.988;29.172;2022-08-04T12:43:38;97984.41;;;17.83;84.77
73103;BME280;61294;65.988;29.172;2022-08-04T12:46:12;97985.19;;;17.85;86.24
73103;BME280;61294;65.988;29.172;2022-08-04T12:48:44;97971.66;;;17.91;85.53
73103;BME280;61294;65.988;29.172;2022-08-04T12:51:11;97979.16;;;17.82;86.01
73103;BME280;61294;65.988;29.172;2022-08-04T12:53:40;97970.84;;;17.69;86.23
73103;BME280;61294;65.988;29.172;2022-08-04T12:56:11;97982.41;;;17.47;87.05
73103;BME280;61294;65.988;29.172;2022-08-04T12:58:46;97981.09;;;17.37;87.43
73103;BME280;61294;65.988;29.172;2022-08-04T13:01:21;97954.41;;;17.18;88.29
73103;BME280;61294;65.988;29.172;2022-08-04T13:03:57;97987.59;;;17.30;87.99
73103;BME280;61294;65.988;29.172;2022-08-04T13:06:36;97960.78;;;17.14;88.34
73103;BME280;61294;65.988;29.172;2022-08-04T13:09:18;97971.81;;;17.04;88.45
73103;BME280;61294;65.988;29.172;2022-08-04T13:12:01;97980.34;;;17.13;89.18
73103;BME280;61294;65.988;29.172;2022-08-04T13:14:36;97977.03;;;17.28;89.00
73103;BME280;61294;65.988;29.172;2022-08-04T13:17:04;97962.31;;;17.19;88.62
73103;BME280;61294;65.988;29.172;2022-08-04T13:19:31;97986.03;;;17.46;88.68
73103;BME280;61294;65.988;29.172;2022-08-04T13:21:57;97974.72;;;17.20;88.42
73103;BME280;61294;65.988;29.172;2022-08-04T13:24:27;97981.16;;;17.15;88.12
73103;BME280;61294;65.988;29.172;2022-08-04T13:26:59;97981.63;;;17.24;88.04
73103;BME280;61294;65.988;29.172;2022-08-04T13:32:04;97967.19;;;18.49;85.82
73103;BME280;61294;65.988;29.172;2022-08-04T13:34:41;97981.06;;;18.94;83.50
73103;BME280;61294;65.988;29.172;2022-08-04T13:37:08;97985.31;;;20.19;78.42
73103;BME280;61294;65.988;29.172;2022-08-04T13:39:36;97967.19;;;19.22;81.57
73103;BME280;61294;65.988;29.172;2022-08-04T13:42:07;97980.91;;;18.78;81.81
73103;BME280;61294;65.988;29.172;2022-08-04T13:44:37;97999.63;;;18.59;82.76
73103;BME280;61294;65.988;29.172;2022-08-04T13:47:06;97974.53;;;18.44;83.54
73103;BME280;61294;65.988;29.172;2022-08-04T13:49:33;97988.06;;;20.02;81.74
73103;BME280;61294;65.988;29.172;2022-08-04T13:52:04;97983.91;;;22.13;74.46
73103;BME280;61294;65.988;29.172;2022-08-04T13:54:46;97970.50;;;22.56;71.43
73103;BME280;61294;65.988;29.172;2022-08-04T13:57:17;97976.38;;;22.20;71.67
73103;BME280;61294;65.988;29.172;2022-08-04T13:59:47;97965.44;;;21.65;72.49
73103;BME280;61294;65.988;29.172;2022-08-04T14:02:32;97979.53;;;20.92;73.33
73103;BME280;61294;65.988;29.172;2022-08-04T14:05:06;97984.53;;;20.82;74.70
73103;BME280;61294;65.988;29.172;2022-08-04T14:08:05;97970.38;;;19.99;76.61
73103;BME280;61294;65.988;29.172;2022-08-04T14:10:24;97959.13;;;19.92;75.55
73103;BME280;61294;65.988;29.172;2022-08-04T14:12:51;97951.34;;;20.05;76.88
73103;BME280;61294;65.988;29.172;2022-08-04T14:15:37;97968.81;;;19.77;75.82
73103;BME280;61294;65.988;29.172;2022-08-04T14:18:21;97957.34;;;19.93;78.19
73103;BME280;61294;65.988;29.172;2022-08-04T14:20:57;97972.84;;;19.69;77.31
73103;BME280;61294;65.988;29.172;2022-08-04T14:23:23;97977.16;;;19.71;78.63
73103;BME280;61294;65.988;29.172;2022-08-04T14:25:50;97968.09;;;19.74;78.73
73103;BME280;61294;65.988;29.172;2022-08-04T14:28:30;97981.53;;;20.07;77.98
73103;BME280;61294;65.988;29.172;2022-08-04T14:31:14;97969.47;;;20.16;78.11
73103;BME280;61294;65.988;29.172;2022-08-04T14:33:40;97973.69;;;20.20;77.51
73103;BME280;61294;65.988;29.172;2022-08-04T14:36:07;97982.28;;;20.09;77.55
73103;BME280;61294;65.988;29.172;2022-08-04T14:41:16;97972.09;;;19.31;77.48
73103;BME280;61294;65.988;29.172;2022-08-04T14:43:47;97970.19;;;19.16;79.61
73103;BME280;61294;65.988;29.172;2022-08-04T14:46:13;97983.06;;;19.43;79.36
73103;BME280;61294;65.988;29.172;2022-08-04T14:51:39;97983.38;;;18.83;79.57
73103;BME280;61294;65.988;29.172;2022-08-04T14:54:05;97992.66;;;18.74;80.33
73103;BME280;61294;65.988;29.172;2022-08-04T14:56:31;97998.66;;;18.79;80.02
73103;BME280;61294;65.988;29.172;2022-08-04T14:58:59;97996.66;;;18.84;80.44
73103;BME280;61294;65.988;29.172;2022-08-04T15:01:26;97994.78;;;18.67;80.78
73103;BME280;61294;65.988;29.172;2022-08-04T15:03:53;97994.38;;;18.57;80.69
73103;BME280;61294;65.988;29.172;2022-08-04T15:06:25;98002.09;;;18.44;81.32
73103;BME280;61294;65.988;29.172;2022-08-04T15:08:54;97984.28;;;18.26;81.69
73103;BME280;61294;65.988;29.172;2022-08-04T15:11:22;97981.97;;;18.18;82.24
73103;BME280;61294;65.988;29.172;2022-08-04T15:13:48;98002.91;;;18.07;82.17
73103;BME280;61294;65.988;29.172;2022-08-04T15:16:13;97972.16;;;17.79;83.39
73103;BME280;61294;65.988;29.172;2022-08-04T15:18:40;97989.81;;;17.82;83.80
73103;BME280;61294;65.988;29.172;2022-08-04T15:21:07;97995.91;;;17.84;83.75
73103;BME280;61294;65.988;29.172;2022-08-04T15:23:34;97981.56;;;17.67;84.33
73103;BME280;61294;65.988;29.172;2022-08-04T15:26:02;97994.34;;;17.59;84.57
73103;BME280;61294;65.988;29.172;2022-08-04T15:28:30;98002.66;;;17.51;84.80
73103;BME280;61294;65.988;29.172;2022-08-04T15:30:57;98020.78;;;17.43;84.41
73103;BME280;61294;65.988;29.172;2022-08-04T15:33:27;98022.63;;;17.20;83.66
73103;BME280;61294;65.988;29.172;2022-08-04T15:36:09;98020.09;;;16.95;83.44
73103;BME280;61294;65.988;29.172;2022-08-04T15:42:30;98049.06;;;16.79;83.43
73103;BME280;61294;65.988;29.172;2022-08-04T15:47:38;98055.72;;;16.91;83.12
73103;BME280;61294;65.988;29.172;2022-08-04T15:50:05;98057.66;;;16.86;83.50
73103;BME280;61294;65.988;29.172;2022-08-04T15:53:11;98062.91;;;16.65;83.62
73103;BME280;61294;65.988;29.172;2022-08-04T15:55:40;98059.59;;;16.59;83.88
73103;BME280;61294;65.988;29.172;2022-08-04T15:58:13;98054.47;;;16.54;84.39
73103;BME280;61294;65.988;29.172;2022-08-04T16:19:08;98037.09;;;16.45;84.50
73103;BME280;61294;65.988;29.172;2022-08-04T16:21:46;98040.19;;;16.56;83.81
73103;BME280;61294;65.988;29.172;2022-08-04T16:27:07;98007.84;;;17.13;81.38
73103;BME280;61294;65.988;29.172;2022-08-04T16:29:37;98032.78;;;17.11;81.04
73103;BME280;61294;65.988;29.172;2022-08-04T16:32:22;98037.94;;;16.91;82.65
73103;BME280;61294;65.988;29.172;2022-08-04T16:35:00;98016.41;;;16.76;83.19
73103;BME280;61294;65.988;29.172;2022-08-04T16:37:41;98032.34;;;16.76;83.12
73103;BME280;61294;65.988;29.172;2022-08-04T16:42:53;98033.25;;;16.52;83.35
73103;BME280;61294;65.988;29.172;2022-08-04T16:45:21;98028.25;;;16.45;83.46
73103;BME280;61294;65.988;29.172;2022-08-04T16:50:14;98035.97;;;16.51;83.95
73103;BME280;61294;65.988;29.172;2022-08-04T16:52:44;98032.63;;;16.46;84.03
73103;BME280;61294;65.988;29.172;2022-08-04T16:55:11;98053.03;;;16.45;83.45
73103;BME280;61294;65.988;29.172;2022-08-04T16:57:37;98048.03;;;16.37;83.76
73103;BME280;61294;65.988;29.172;2022-08-04T17:00:04;98030.16;;;16.41;83.98
73103;BME280;61294;65.988;29.172;2022-08-04T17:02:29;98061.84;;;16.69;83.99